Time;durP1;ratioP1;P1;durP2;ratioP2;P2;SDS_P1;SDS_P2;PMS_P1;PMS_P2;Temp;Humidity;BMP_temperature;BMP_pressure;BME280_temperature;BME280_humidity;BME280_pressure;Samples;Min_cycle;Max_cycle;Signal;HPM_P1;HPM_P2
2021/10/08 00:02:06;;;;;;;9.60;3.70;;;;;;;12.71;78.93;100978.16;5113124;28;20089;-72
2021/10/08 00:04:36;;;;;;;9.18;3.13;;;;;;;12.61;79.22;100991.22;5113427;28;20548;-71
2021/10/08 00:07:04;;;;;;;8.30;3.05;;;;;;;12.57;78.83;100987.00;5145938;27;20112;-71
2021/10/08 00:09:34;;;;;;;8.63;3.13;;;;;;;12.54;78.96;100982.66;5113192;28;20377;-71
2021/10/08 00:12:03;;;;;;;11.43;3.30;;;;;;;12.59;78.91;100995.78;5112779;28;20050;-71
2021/10/08 00:14:34;;;;;;;10.45;3.08;;;;;;;12.48;78.99;100999.09;5113257;28;20046;-71
2021/10/08 00:17:03;;;;;;;9.57;3.40;;;;;;;12.53;79.01;100988.09;5112856;28;20054;-71
2021/10/08 00:19:32;;;;;;;9.75;3.28;;;;;;;12.49;78.89;101003.47;5113211;28;20105;-71
2021/10/08 00:22:00;;;;;;;7.78;3.22;;;;;;;12.49;78.73;100997.28;5112822;28;20040;-74
2021/10/08 00:24:28;;;;;;;8.82;3.40;;;;;;;12.50;78.75;100994.50;5112947;28;20493;-73
2021/10/08 00:26:58;;;;;;;8.10;3.38;;;;;;;12.40;79.09;101004.00;5112885;28;20043;-74
2021/10/08 00:29:26;;;;;;;10.85;3.08;;;;;;;12.45;78.38;101004.63;5112304;28;20086;-73
2021/10/08 00:31:54;;;;;;;10.82;3.25;;;;;;;12.39;78.15;101010.28;5113082;28;20051;-73
2021/10/08 00:34:23;;;;;;;8.68;3.22;;;;;;;12.29;78.71;101006.41;5112958;28;20562;-74
2021/10/08 00:36:51;;;;;;;6.85;3.00;;;;;;;12.29;78.38;101001.91;5112858;28;20036;-74
2021/10/08 00:39:19;;;;;;;8.80;3.35;;;;;;;12.28;78.55;101010.03;5112876;28;20119;-74
2021/10/08 00:41:48;;;;;;;9.55;3.72;;;;;;;12.28;78.55;101010.91;5112957;28;20032;-74
2021/10/08 00:44:17;;;;;;;8.35;3.28;;;;;;;12.33;78.87;101010.63;5112628;28;20036;-74
2021/10/08 00:46:45;;;;;;;9.90;3.15;;;;;;;12.31;77.59;101009.84;5112844;28;20089;-74
2021/10/08 00:49:14;;;;;;;6.93;3.25;;;;;;;12.21;78.30;101016.66;5113838;28;20377;-73
2021/10/08 00:51:42;;;;;;;8.55;3.10;;;;;;;12.28;78.65;101018.06;5116790;28;20043;-73
2021/10/08 00:54:10;;;;;;;8.23;2.90;;;;;;;12.33;78.29;101014.16;5116515;28;20089;-73
2021/10/08 00:56:40;;;;;;;5.75;2.95;;;;;;;12.24;78.04;101025.38;5116686;28;20404;-73
2021/10/08 00:59:08;;;;;;;9.93;3.20;;;;;;;12.27;78.26;101024.34;5116300;28;20096;-73
2021/10/08 01:01:38;;;;;;;6.95;3.38;;;;;;;12.14;78.48;101026.81;5116432;28;20097;-74
2021/10/08 01:04:11;;;;;;;7.72;3.08;;;;;;;12.18;77.56;101022.19;5116250;28;20117;-73
2021/10/08 01:06:39;;;;;;;7.60;3.13;;;;;;;12.13;78.00;101029.59;5116607;28;20452;-73
2021/10/08 01:09:08;;;;;;;9.60;3.35;;;;;;;12.12;77.45;101025.19;5116035;28;20283;-73
2021/10/08 01:11:37;;;;;;;8.32;2.92;;;;;;;12.12;77.22;101031.38;5116381;28;20050;-73
2021/10/08 01:14:05;;;;;;;10.82;3.17;;;;;;;12.10;77.56;101030.63;5115918;28;20051;-75
2021/10/08 01:16:33;;;;;;;10.43;3.45;;;;;;;12.00;77.31;101032.94;5116160;28;20039;-73
2021/10/08 01:19:03;;;;;;;7.90;3.30;;;;;;;12.10;77.36;101038.63;5116141;28;20046;-74
2021/10/08 01:21:33;;;;;;;8.10;3.25;;;;;;;11.98;77.79;101042.84;5116146;28;20054;-73
2021/10/08 01:24:01;;;;;;;10.48;3.45;;;;;;;12.06;77.83;101046.91;5115764;28;20044;-73
2021/10/08 01:26:29;;;;;;;10.80;3.08;;;;;;;12.11;77.24;101042.19;5115851;28;20040;-73
2021/10/08 01:28:57;;;;;;;10.70;3.50;;;;;;;12.04;77.91;101045.16;5114793;28;20040;-74
2021/10/08 01:31:25;;;;;;;7.63;3.38;;;;;;;11.98;77.93;101044.66;5115778;28;20055;-73
2021/10/08 01:33:54;;;;;;;10.38;3.22;;;;;;;12.03;77.33;101040.78;5115961;28;20070;-73
2021/10/08 01:36:22;;;;;;;9.50;3.13;;;;;;;11.96;77.67;101046.53;5115596;28;20040;-74
2021/10/08 01:38:51;;;;;;;6.93;3.30;;;;;;;11.97;78.10;101049.13;5115863;28;20051;-75
2021/10/08 01:41:20;;;;;;;8.05;3.80;;;;;;;11.83;78.44;101045.47;5115385;28;20054;-74
2021/10/08 01:43:50;;;;;;;5.97;3.38;;;;;;;11.84;78.11;101047.19;5115587;28;20452;-74
2021/10/08 01:46:18;;;;;;;7.32;3.58;;;;;;;11.89;77.78;101050.50;5115344;28;20071;-74
2021/10/08 01:48:46;;;;;;;10.27;2.97;;;;;;;11.92;77.66;101056.53;5115672;28;20051;-74
2021/10/08 01:51:14;;;;;;;11.63;3.53;;;;;;;11.84;78.20;101053.38;5115275;28;20085;-74
2021/10/08 01:53:43;;;;;;;9.30;3.35;;;;;;;11.80;76.81;101057.19;5115701;28;20043;-72
2021/10/08 01:56:12;;;;;;;10.27;3.65;;;;;;;11.77;77.78;101065.31;5148233;27;20051;-71
2021/10/08 01:58:41;;;;;;;6.75;3.38;;;;;;;11.75;77.19;101070.75;5115535;28;20039;-71
2021/10/08 02:01:09;;;;;;;10.32;3.72;;;;;;;11.64;77.80;101072.25;5114274;28;20069;-72
2021/10/08 02:03:37;;;;;;;7.38;3.45;;;;;;;11.71;77.13;101081.69;5115548;28;20400;-73
2021/10/08 02:06:06;;;;;;;9.02;3.63;;;;;;;11.70;77.44;101075.47;5115054;28;20209;-74
2021/10/08 02:08:34;;;;;;;8.13;3.92;;;;;;;11.59;77.48;101075.16;5115078;28;20043;-73
2021/10/08 02:11:02;;;;;;;11.65;4.03;;;;;;;11.60;77.29;101070.69;5115250;28;20036;-78
2021/10/08 02:13:32;;;;;;;7.10;3.55;;;;;;;11.61;77.19;101077.75;5115053;28;20093;-72
2021/10/08 02:16:00;;;;;;;7.85;3.42;;;;;;;11.62;77.36;101076.81;5115179;28;20035;-72
2021/10/08 02:18:29;;;;;;;9.57;3.83;;;;;;;11.60;77.30;101076.91;5114923;28;20047;-71
2021/10/08 02:20:57;;;;;;;10.35;3.90;;;;;;;11.63;76.90;101065.19;5114903;28;20043;-73
2021/10/08 02:23:26;;;;;;;8.10;3.55;;;;;;;11.54;77.15;101073.66;5114716;28;20042;-73
2021/10/08 02:25:54;;;;;;;8.60;3.63;;;;;;;11.53;76.95;101085.28;5114797;28;20442;-73
2021/10/08 02:28:22;;;;;;;11.50;3.83;;;;;;;11.49;77.18;101073.91;5114822;28;20050;-74
2021/10/08 02:30:52;;;;;;;10.00;3.92;;;;;;;11.54;77.00;101081.69;5114635;28;20123;-72
2021/10/08 02:33:20;;;;;;;11.50;4.38;;;;;;;11.47;77.35;101086.47;5114646;28;20085;-72
2021/10/08 02:35:50;;;;;;;11.68;4.18;;;;;;;11.47;77.33;101081.97;5114872;28;20039;-72
2021/10/08 02:38:18;;;;;;;10.55;4.43;;;;;;;11.49;77.20;101081.94;5113493;28;20055;-72
2021/10/08 02:40:48;;;;;;;13.27;4.40;;;;;;;11.51;77.16;101084.50;5114843;28;20054;-72
2021/10/08 02:43:16;;;;;;;9.20;4.03;;;;;;;11.47;76.99;101084.66;5114245;28;20078;-72
2021/10/08 02:45:44;;;;;;;10.93;4.22;;;;;;;11.44;77.01;101090.16;5114370;28;20051;-72
2021/10/08 02:48:13;;;;;;;8.48;3.70;;;;;;;11.43;77.08;101095.59;5113041;28;20039;-72
2021/10/08 02:50:42;;;;;;;8.57;3.80;;;;;;;11.38;77.11;101097.59;5113280;28;20058;-71
2021/10/08 02:53:12;;;;;;;10.85;4.10;;;;;;;11.33;76.90;101095.19;5114442;28;20044;-71
2021/10/08 02:55:41;;;;;;;9.95;4.10;;;;;;;11.37;76.68;101094.06;5114846;28;20100;-71
2021/10/08 02:58:09;;;;;;;13.00;3.92;;;;;;;11.32;77.19;101093.44;5113922;28;20046;-71
2021/10/08 03:00:37;;;;;;;9.93;3.90;;;;;;;11.26;77.66;101091.06;5114268;28;20526;-71
2021/10/08 03:03:06;;;;;;;10.95;4.10;;;;;;;11.22;77.87;101102.00;5113889;28;20040;-77
2021/10/08 03:05:35;;;;;;;10.65;3.97;;;;;;;11.29;77.56;101098.06;5114143;28;20093;-71
2021/10/08 03:08:07;;;;;;;10.82;3.92;;;;;;;11.26;76.90;101093.75;5113937;28;20477;-76
2021/10/08 03:10:36;;;;;;;12.02;4.40;;;;;;;11.22;77.42;101102.88;5114015;28;20122;-71
2021/10/08 03:13:04;;;;;;;12.40;4.28;;;;;;;11.20;77.25;101112.75;5113836;28;20043;-71
2021/10/08 03:15:33;;;;;;;14.80;4.75;;;;;;;11.21;77.15;101117.16;5114265;28;20067;-71
2021/10/08 03:18:01;;;;;;;8.50;3.88;;;;;;;11.22;77.79;101110.88;5114115;28;20051;-71
2021/10/08 03:20:32;;;;;;;10.02;4.28;;;;;;;11.15;77.92;101112.09;5113474;28;20043;-71
2021/10/08 03:23:01;;;;;;;12.27;4.10;;;;;;;11.09;78.33;101113.25;5113943;28;20047;-71
2021/10/08 03:25:29;;;;;;;9.57;4.32;;;;;;;11.14;77.83;101115.72;5113447;28;20074;-71
2021/10/08 03:27:57;;;;;;;9.88;4.53;;;;;;;11.10;77.62;101120.34;5113632;28;20040;-71
2021/10/08 03:30:26;;;;;;;8.82;4.03;;;;;;;11.07;77.38;101116.94;5113315;28;20040;-70
2021/10/08 03:32:55;;;;;;;11.85;4.32;;;;;;;11.04;77.67;101109.09;5113529;28;20052;-72
2021/10/08 03:35:23;;;;;;;14.38;4.35;;;;;;;11.02;77.56;101110.97;5113234;28;20392;-73
2021/10/08 03:37:53;;;;;;;12.10;4.70;;;;;;;11.05;77.79;101106.34;5113658;28;20040;-74
2021/10/08 03:40:26;;;;;;;11.13;4.22;;;;;;;11.00;78.03;101118.19;5113229;28;20054;-74
2021/10/08 03:42:56;;;;;;;11.13;4.53;;;;;;;10.96;77.65;101117.47;5113641;28;20460;-71
2021/10/08 03:45:30;;;;;;;9.32;4.35;;;;;;;10.97;78.19;101123.66;5113187;28;20044;-70
2021/10/08 03:48:08;;;;;;;10.60;4.68;;;;;;;10.93;78.26;101111.44;5113720;28;20496;-69
2021/10/08 03:50:36;;;;;;;9.15;4.28;;;;;;;11.00;77.62;101119.06;5113474;28;20096;-73
2021/10/08 03:53:06;;;;;;;15.60;4.88;;;;;;;10.91;77.92;101113.31;5113762;28;20048;-73
2021/10/08 03:55:36;;;;;;;11.20;4.68;;;;;;;10.96;77.86;101116.59;5113424;28;20054;-72
2021/10/08 03:58:04;;;;;;;11.23;4.28;;;;;;;10.94;78.03;101119.34;5113415;28;20039;-71
2021/10/08 04:00:32;;;;;;;15.55;4.60;;;;;;;10.85;77.53;101126.00;5111501;28;20143;-72
2021/10/08 04:03:01;;;;;;;11.85;4.80;;;;;;;10.78;77.57;101115.69;5113130;28;20484;-72
2021/10/08 04:05:30;;;;;;;12.20;4.85;;;;;;;10.79;77.55;101112.94;5113050;28;20043;-71
2021/10/08 04:07:58;;;;;;;14.68;4.90;;;;;;;10.70;77.95;101120.50;5113351;28;20523;-70
2021/10/08 04:10:27;;;;;;;11.35;4.55;;;;;;;10.70;78.31;101120.50;5113012;28;20035;-71
2021/10/08 04:12:59;;;;;;;9.63;4.78;;;;;;;10.67;77.41;101121.53;5113378;28;20134;-71
2021/10/08 04:15:31;;;;;;;9.48;4.60;;;;;;;10.70;78.28;101126.69;5112979;28;20241;-71
2021/10/08 04:18:00;;;;;;;12.25;4.63;;;;;;;10.71;77.95;101119.56;5111731;28;20051;-71
2021/10/08 04:20:28;;;;;;;13.73;5.00;;;;;;;10.63;77.81;101125.28;5112840;28;20043;-71
2021/10/08 04:22:57;;;;;;;9.65;4.70;;;;;;;10.49;78.47;101127.69;5146433;27;20451;-73
2021/10/08 04:25:25;;;;;;;12.05;4.82;;;;;;;10.51;78.23;101133.81;5116161;28;20108;-73
2021/10/08 04:27:53;;;;;;;12.05;5.32;;;;;;;10.60;78.40;101131.59;5117082;28;20062;-72
2021/10/08 04:30:23;;;;;;;9.13;4.60;;;;;;;10.56;78.19;101145.16;5116581;28;20069;-70
2021/10/08 04:32:52;;;;;;;13.30;4.93;;;;;;;10.47;78.72;101137.59;5116964;28;20051;-70
2021/10/08 04:35:23;;;;;;;12.27;4.95;;;;;;;10.42;79.21;101127.13;5115658;28;20116;-71
2021/10/08 04:37:51;;;;;;;11.40;4.78;;;;;;;10.46;78.14;101130.53;5115781;28;20048;-72
2021/10/08 04:40:19;;;;;;;10.65;4.95;;;;;;;10.39;78.62;101137.06;5116705;28;20071;-70
2021/10/08 04:42:47;;;;;;;14.93;4.95;;;;;;;10.38;78.60;101144.19;5116829;28;20385;-71
2021/10/08 04:45:16;;;;;;;14.38;5.22;;;;;;;10.31;78.35;101135.59;5116750;28;20040;-76
2021/10/08 04:47:46;;;;;;;13.57;5.22;;;;;;;10.26;78.59;101139.44;5116865;28;20042;-70
2021/10/08 04:50:18;;;;;;;12.27;4.68;;;;;;;10.25;78.58;101138.56;5116330;28;20044;-71
2021/10/08 04:52:46;;;;;;;11.45;5.13;;;;;;;10.29;78.60;101137.47;5115733;28;20078;-72
2021/10/08 04:55:14;;;;;;;18.38;6.28;;;;;;;10.34;78.88;101144.41;5116819;28;20465;-71
2021/10/08 04:57:43;;;;;;;15.20;5.18;;;;;;;10.26;78.63;101126.97;5116331;28;20527;-71
2021/10/08 05:00:14;;;;;;;12.35;4.95;;;;;;;10.21;79.00;101134.25;5116640;28;20404;-70
2021/10/08 05:02:42;;;;;;;11.88;4.90;;;;;;;10.19;79.14;101151.25;5115756;28;20544;-71
2021/10/08 05:05:12;;;;;;;12.18;5.40;;;;;;;10.13;79.48;101151.50;5116448;28;20532;-70
2021/10/08 05:07:40;;;;;;;13.88;4.65;;;;;;;10.14;79.11;101148.81;5116416;28;20058;-71
2021/10/08 05:10:09;;;;;;;10.40;4.97;;;;;;;10.12;79.25;101147.13;5116325;28;20108;-70
2021/10/08 05:12:37;;;;;;;12.60;5.30;;;;;;;10.15;79.65;101157.66;5116322;28;20040;-69
2021/10/08 05:15:06;;;;;;;12.55;5.50;;;;;;;10.03;79.76;101167.91;5116261;28;20047;-69
2021/10/08 05:17:34;;;;;;;10.77;4.95;;;;;;;10.10;80.40;101157.84;5116022;28;20044;-69
2021/10/08 05:20:03;;;;;;;13.68;5.57;;;;;;;10.14;79.24;101158.59;5116238;28;20036;-69
2021/10/08 05:22:37;;;;;;;13.60;5.45;;;;;;;10.04;79.97;101175.00;5116226;28;20092;-71
2021/10/08 05:25:07;;;;;;;11.20;5.30;;;;;;;10.17;79.67;101170.00;5116054;28;20043;-71
2021/10/08 05:27:36;;;;;;;13.90;5.85;;;;;;;10.13;78.63;101168.38;5115727;28;20054;-70
2021/10/08 05:30:06;;;;;;;14.65;5.60;;;;;;;10.11;79.60;101162.25;5114758;28;20043;-69
2021/10/08 05:32:34;;;;;;;14.35;5.32;;;;;;;10.21;78.95;101168.91;5115080;28;20051;-70
2021/10/08 05:35:02;;;;;;;11.50;5.10;;;;;;;10.17;79.51;101175.31;5114320;28;20071;-69
2021/10/08 05:37:31;;;;;;;12.88;5.78;;;;;;;10.25;79.21;101175.88;5114036;28;20039;-71
2021/10/08 05:40:03;;;;;;;13.05;5.15;;;;;;;10.32;79.93;101174.66;5115041;28;20044;-71
2021/10/08 05:42:31;;;;;;;14.02;6.07;;;;;;;10.29;78.82;101174.81;5114561;28;20062;-71
2021/10/08 05:45:00;;;;;;;13.00;5.97;;;;;;;10.26;79.66;101174.94;5114558;28;20081;-71
2021/10/08 05:47:28;;;;;;;19.30;5.32;;;;;;;10.24;78.56;101175.97;5112864;28;20059;-72
2021/10/08 05:49:56;;;;;;;17.63;5.88;;;;;;;10.17;79.39;101186.00;5114323;28;20071;-71
2021/10/08 05:52:24;;;;;;;14.13;6.28;;;;;;;10.16;79.01;101178.94;5114036;28;20058;-72
2021/10/08 05:54:53;;;;;;;14.57;5.75;;;;;;;10.12;78.79;101190.63;5147644;27;20376;-72
2021/10/08 05:57:23;;;;;;;13.57;5.65;;;;;;;10.13;78.58;101187.03;5114077;28;20066;-77
2021/10/08 05:59:51;;;;;;;14.77;6.10;;;;;;;10.16;78.76;101194.91;5114358;28;20115;-71
2021/10/08 06:02:19;;;;;;;10.15;5.65;;;;;;;10.21;78.57;101198.25;5114407;28;20040;-71
2021/10/08 06:04:48;;;;;;;15.32;5.88;;;;;;;10.29;78.77;101190.81;5114079;28;20039;-70
2021/10/08 06:07:16;;;;;;;13.25;6.30;;;;;;;10.14;78.22;101206.59;5114102;28;20055;-68
2021/10/08 06:09:46;;;;;;;14.35;6.03;;;;;;;10.25;77.23;101197.22;5113470;28;20047;-68
2021/10/08 06:12:15;;;;;;;15.20;6.13;;;;;;;10.41;77.08;101200.06;5113683;28;20048;-69
2021/10/08 06:14:47;;;;;;;14.90;5.82;;;;;;;10.47;76.18;101201.59;5113509;28;20084;-68
2021/10/08 06:17:15;;;;;;;14.75;5.88;;;;;;;10.50;75.57;101212.13;5113664;28;20048;-68
2021/10/08 06:19:43;;;;;;;12.35;5.75;;;;;;;10.49;75.81;101210.41;5114408;28;20044;-69
2021/10/08 06:22:12;;;;;;;16.15;6.03;;;;;;;10.63;76.00;101210.66;5113537;28;20499;-69
2021/10/08 06:24:40;;;;;;;14.38;5.35;;;;;;;10.64;75.75;101206.19;5113215;28;20055;-70
2021/10/08 06:27:08;;;;;;;12.45;5.47;;;;;;;10.60;75.80;101213.44;5147186;27;20079;-70
2021/10/08 06:29:36;;;;;;;12.00;5.43;;;;;;;10.67;75.31;101214.91;5113435;28;20424;-70
2021/10/08 06:32:11;;;;;;;20.23;6.40;;;;;;;10.66;75.69;101210.50;5114211;28;20048;-69
2021/10/08 06:34:39;;;;;;;13.10;6.13;;;;;;;10.75;75.01;101199.41;5113340;28;20044;-70
2021/10/08 06:37:08;;;;;;;16.58;5.97;;;;;;;10.83;74.79;101207.94;5112297;28;20039;-69
2021/10/08 06:39:36;;;;;;;14.80;5.82;;;;;;;10.81;74.84;101215.16;5113382;28;20138;-68
2021/10/08 06:42:04;;;;;;;14.45;6.45;;;;;;;10.87;74.09;101212.19;5113296;28;20063;-70
2021/10/08 06:44:33;;;;;;;16.95;6.32;;;;;;;10.85;73.90;101211.41;5113009;28;20039;-68
2021/10/08 06:47:01;;;;;;;14.45;5.72;;;;;;;10.77;74.13;101208.22;5112696;28;20043;-67
2021/10/08 06:49:30;;;;;;;16.35;5.75;;;;;;;10.63;74.61;101205.31;5112682;28;20131;-68
2021/10/08 06:51:59;;;;;;;19.63;6.88;;;;;;;10.81;74.75;101220.50;5112757;28;20043;-68
2021/10/08 06:54:27;;;;;;;13.30;5.90;;;;;;;10.87;73.98;101214.00;5112745;28;20055;-72
2021/10/08 06:56:55;;;;;;;13.35;5.32;;;;;;;10.84;74.04;101215.00;5113108;28;20119;-68
2021/10/08 06:59:24;;;;;;;9.88;5.45;;;;;;;10.64;73.96;101223.06;5112517;28;20043;-69
2021/10/08 07:01:53;;;;;;;18.15;6.13;;;;;;;10.63;73.95;101221.34;5112242;28;20039;-68
2021/10/08 07:04:22;;;;;;;16.05;6.72;;;;;;;10.64;74.61;101207.06;5112403;28;20045;-68
2021/10/08 07:06:52;;;;;;;15.23;6.35;;;;;;;10.65;75.19;101208.78;5112508;28;20426;-68
2021/10/08 07:09:20;;;;;;;13.82;6.03;;;;;;;10.69;74.36;101217.50;5112263;28;20503;-68
2021/10/08 07:11:48;;;;;;;14.35;6.18;;;;;;;10.67;74.35;101217.56;5111913;28;20474;-68
2021/10/08 07:14:17;;;;;;;12.65;6.28;;;;;;;10.51;74.11;101225.38;5112434;28;20447;-67
2021/10/08 07:16:46;;;;;;;13.35;6.60;;;;;;;10.62;74.59;101224.06;5111764;28;20506;-69
2021/10/08 07:19:15;;;;;;;16.42;5.68;;;;;;;10.70;74.38;101237.91;5110104;28;20542;-68
2021/10/08 07:21:44;;;;;;;17.00;6.70;;;;;;;10.56;74.94;101233.19;5111506;28;20043;-68
2021/10/08 07:24:15;;;;;;;14.32;6.43;;;;;;;10.70;75.23;101228.09;5110164;28;20063;-68
2021/10/08 07:26:44;;;;;;;12.98;6.22;;;;;;;10.58;75.06;101226.00;5111188;28;20040;-68
2021/10/08 07:29:12;;;;;;;16.95;7.30;;;;;;;10.65;75.18;101235.47;5112033;28;20043;-68
2021/10/08 07:31:41;;;;;;;13.02;5.80;;;;;;;10.67;74.28;101236.25;5111422;28;20387;-68
2021/10/08 07:34:09;;;;;;;13.43;6.20;;;;;;;10.63;74.18;101239.16;5112033;28;20035;-68
2021/10/08 07:36:40;;;;;;;14.55;6.18;;;;;;;10.70;74.83;101238.78;5112024;28;20044;-67
2021/10/08 07:39:08;;;;;;;14.48;5.65;;;;;;;10.84;73.49;101240.84;5111541;28;20503;-68
2021/10/08 07:41:38;;;;;;;14.55;5.93;;;;;;;10.80;74.93;101248.09;5112096;28;20377;-69
2021/10/08 07:44:06;;;;;;;16.52;6.63;;;;;;;10.87;73.95;101257.56;5111922;28;20502;-68
2021/10/08 07:46:34;;;;;;;15.25;6.65;;;;;;;10.89;73.76;101249.47;5111358;28;20040;-68
2021/10/08 07:49:02;;;;;;;15.68;5.85;;;;;;;10.97;73.24;101246.47;5111680;28;20112;-68
2021/10/08 07:51:32;;;;;;;13.20;5.60;;;;;;;10.97;73.75;101251.81;5111733;28;20120;-68
2021/10/08 07:54:00;;;;;;;18.75;6.38;;;;;;;11.06;73.40;101259.41;5111943;28;20066;-68
2021/10/08 07:56:28;;;;;;;15.88;5.93;;;;;;;11.15;73.31;101250.97;5111579;28;20122;-68
2021/10/08 07:58:58;;;;;;;23.02;7.05;;;;;;;11.01;73.17;101258.75;5110998;28;20425;-68
2021/10/08 08:01:27;;;;;;;15.20;6.22;;;;;;;11.01;73.20;101259.63;5111518;28;20155;-68
2021/10/08 08:03:55;;;;;;;17.35;6.55;;;;;;;11.09;73.65;101256.56;5111443;28;20049;-68
2021/10/08 08:06:23;;;;;;;18.92;6.68;;;;;;;11.28;73.10;101251.25;5144696;27;20048;-68
2021/10/08 08:08:51;;;;;;;16.73;6.00;;;;;;;11.32;72.18;101248.38;5111484;28;20135;-68
2021/10/08 08:11:19;;;;;;;17.27;6.70;;;;;;;11.50;72.39;101251.09;5111683;28;20046;-67
2021/10/08 08:13:48;;;;;;;16.55;5.55;;;;;;;11.53;70.90;101241.13;5111554;28;20139;-68
2021/10/08 08:16:17;;;;;;;14.25;5.80;;;;;;;11.56;70.33;101240.97;5111799;28;20043;-67
2021/10/08 08:18:46;;;;;;;16.00;6.05;;;;;;;11.55;70.53;101244.59;5111456;28;20044;-68
2021/10/08 08:21:14;;;;;;;12.23;6.00;;;;;;;11.64;70.46;101245.94;5111654;28;20067;-69
2021/10/08 08:23:42;;;;;;;12.32;6.07;;;;;;;11.72;70.25;101243.78;5111062;28;20038;-69
2021/10/08 08:26:11;;;;;;;15.55;6.38;;;;;;;11.75;70.28;101240.94;5111240;28;20481;-69
2021/10/08 08:28:39;;;;;;;12.75;5.90;;;;;;;11.93;70.10;101248.06;5111198;28;20043;-69
2021/10/08 08:31:08;;;;;;;15.07;5.85;;;;;;;12.00;68.64;101240.63;5111294;28;20480;-69
2021/10/08 08:33:38;;;;;;;19.02;6.53;;;;;;;12.04;68.99;101232.34;5111235;28;20047;-69
2021/10/08 08:36:07;;;;;;;13.60;5.80;;;;;;;12.09;67.92;101233.94;5109837;28;20138;-68
2021/10/08 08:38:35;;;;;;;13.30;6.05;;;;;;;12.30;68.41;101230.16;5111185;28;20069;-72
2021/10/08 08:41:03;;;;;;;15.27;5.57;;;;;;;12.28;67.63;101224.03;5111281;28;20047;-68
2021/10/08 08:43:31;;;;;;;15.60;6.07;;;;;;;12.25;67.85;101218.81;5111014;28;20449;-68
2021/10/08 08:46:00;;;;;;;13.77;5.93;;;;;;;12.25;68.09;101219.69;5110707;28;20047;-68
2021/10/08 08:48:28;;;;;;;16.02;6.47;;;;;;;12.35;67.72;101217.41;5110688;28;20048;-68
2021/10/08 08:50:58;;;;;;;13.93;5.88;;;;;;;12.47;67.96;101224.81;5110330;28;20084;-68
2021/10/08 08:53:26;;;;;;;15.10;6.15;;;;;;;12.59;68.15;101218.78;5110059;28;20043;-69
2021/10/08 08:55:54;;;;;;;13.23;6.18;;;;;;;12.65;67.64;101219.44;5110341;28;20108;-69
2021/10/08 08:58:23;;;;;;;12.68;5.95;;;;;;;12.78;68.23;101223.16;5110826;28;20040;-68
2021/10/08 09:00:58;;;;;;;15.35;5.60;;;;;;;12.95;67.95;101208.88;5110117;28;20056;-69
2021/10/08 09:03:27;;;;;;;13.93;5.70;;;;;;;13.01;66.21;101224.56;5110981;28;20039;-68
2021/10/08 09:05:56;;;;;;;12.05;5.40;;;;;;;12.98;66.33;101212.22;5110679;28;20044;-69
2021/10/08 09:08:33;;;;;;;19.48;5.85;;;;;;;12.95;65.31;101208.88;5109384;28;20058;-69
2021/10/08 09:11:05;;;;;;;16.23;6.35;;;;;;;13.11;66.36;101210.59;5113660;28;20101;-67
2021/10/08 09:13:33;;;;;;;10.38;5.47;;;;;;;13.17;65.74;101210.25;5114611;28;20126;-69
2021/10/08 09:16:04;;;;;;;15.25;6.07;;;;;;;13.14;65.75;101204.22;5114829;28;20050;-68
2021/10/08 09:18:33;;;;;;;15.32;6.18;;;;;;;13.22;65.30;101207.38;5113410;28;20047;-68
2021/10/08 09:21:11;;;;;;;17.77;5.88;;;;;;;13.33;64.87;101198.72;5114243;28;20135;-69
2021/10/08 09:23:46;;;;;;;12.00;5.45;;;;;;;13.31;64.01;101205.97;5114586;28;20130;-69
2021/10/08 09:26:17;;;;;;;12.10;5.90;;;;;;;13.49;64.48;101212.97;5114188;28;20039;-69
2021/10/08 09:28:53;;;;;;;10.98;5.43;;;;;;;13.48;63.92;101207.69;5114353;28;20081;-69
2021/10/08 09:31:26;;;;;;;13.98;5.90;;;;;;;13.58;63.34;101204.41;5114701;28;20052;-68
2021/10/08 09:34:11;;;;;;;15.57;5.15;;;;;;;13.53;63.71;101203.81;5114129;28;20044;-68
2021/10/08 09:36:42;;;;;;;13.93;5.53;;;;;;;13.81;63.08;101203.09;5113771;28;20062;-70
2021/10/08 09:39:18;;;;;;;;;;;;;;;14.04;63.24;101207.09;5114884;28;20039;-69
2021/10/08 09:41:55;;;;;;;16.10;5.38;;;;;;;13.85;61.70;101203.75;5114285;28;20232;-69
2021/10/08 09:44:24;;;;;;;12.75;5.55;;;;;;;13.81;62.52;101200.41;5114465;28;20089;-68
2021/10/08 09:47:09;;;;;;;11.95;5.45;;;;;;;13.96;61.03;101193.25;5113776;28;20100;-69
2021/10/08 09:49:38;;;;;;;14.55;5.30;;;;;;;13.89;61.56;101198.09;5114197;28;20074;-69
2021/10/08 09:52:23;;;;;;;11.77;5.03;;;;;;;14.01;61.36;101204.59;5113871;28;20069;-69
2021/10/08 09:54:57;;;;;;;13.02;4.78;;;;;;;14.14;60.82;101202.88;5113842;28;20051;-69
2021/10/08 09:57:26;;;;;;;10.65;5.57;;;;;;;14.20;60.47;101199.84;5114038;28;20062;-69
2021/10/08 09:59:55;;;;;;;11.77;5.28;;;;;;;14.23;60.61;101196.09;5112254;28;20052;-69
2021/10/08 10:02:24;;;;;;;14.60;5.50;;;;;;;14.28;60.33;101188.63;5113818;28;20039;-69
2021/10/08 10:04:59;;;;;;;11.95;4.60;;;;;;;14.30;59.80;101201.03;5113712;28;20141;-68
2021/10/08 10:07:28;;;;;;;14.07;5.95;;;;;;;14.39;60.98;101185.31;5113642;28;20046;-68
2021/10/08 10:09:58;;;;;;;13.02;5.10;;;;;;;14.47;60.46;101199.13;5113110;28;20036;-68
2021/10/08 10:12:37;;;;;;;14.38;5.43;;;;;;;14.56;59.81;101194.06;5113744;28;20123;-68
2021/10/08 10:15:07;;;;;;;14.07;5.22;;;;;;;14.43;60.24;101198.44;5113323;28;20092;-68
2021/10/08 10:17:38;;;;;;;14.90;4.75;;;;;;;14.55;60.78;101175.38;5113226;28;20096;-69
2021/10/08 10:20:10;;;;;;;14.43;5.20;;;;;;;14.45;60.04;101187.63;5112773;28;20100;-71
2021/10/08 10:22:39;;;;;;;10.00;5.18;;;;;;;14.50;60.46;101193.59;5112317;28;20039;-68
2021/10/08 10:25:12;;;;;;;15.02;5.38;;;;;;;14.49;59.71;101182.00;5112518;28;20055;-68
2021/10/08 10:27:40;;;;;;;;;;;;;;;14.49;59.75;101198.09;5113005;28;20417;-68
2021/10/08 10:30:10;;;;;;;9.52;5.22;;;;;;;14.52;58.71;101176.44;5111149;28;19923;-69
2021/10/08 10:32:45;;;;;;;12.85;5.60;;;;;;;14.41;59.59;101186.94;5111298;28;20051;-68
2021/10/08 10:35:38;;;;;;;13.95;5.18;;;;;;;14.54;60.08;101195.13;5112898;28;20093;-68
2021/10/08 10:38:37;;;;;;;11.93;4.97;;;;;;;14.39;59.65;101196.06;5112395;28;20044;-69
2021/10/08 10:41:25;;;;;;;11.80;5.22;;;;;;;14.31;58.79;101204.56;5029792;28;20045;-69
2021/10/08 10:44:14;;;;;;;15.43;5.22;;;;;;;14.27;58.87;101203.00;5106250;28;20174;-69
2021/10/08 10:46:50;;;;;;;12.27;4.97;;;;;;;14.25;59.06;101208.47;5112439;28;20175;-68
2021/10/08 10:52:26;;;;;;;13.85;5.38;;;;;;;14.25;58.23;101195.06;5112769;28;20047;-68
2021/10/08 10:55:13;;;;;;;9.38;4.43;;;;;;;14.25;57.68;101195.06;5112533;28;20111;-69
2021/10/08 10:58:16;;;;;;;14.30;5.07;;;;;;;14.18;58.57;101191.00;5112549;28;20405;-68
2021/10/08 11:00:47;;;;;;;9.65;4.97;;;;;;;14.20;58.46;101183.75;5112365;28;20047;-68
2021/10/08 11:03:23;;;;;;;14.35;5.00;;;;;;;14.23;58.83;101191.59;5112522;28;20122;-68
2021/10/08 11:06:24;;;;;;;13.57;4.90;;;;;;;14.39;59.33;101183.50;5112140;28;20042;-68
2021/10/08 11:09:21;;;;;;;14.00;5.43;;;;;;;14.40;58.65;101187.91;5112408;28;20036;-69
2021/10/08 11:12:26;;;;;;;10.38;4.60;;;;;;;14.47;58.23;101177.66;5112452;28;20443;-69
2021/10/08 11:15:27;;;;;;;12.13;4.22;;;;;;;14.50;58.27;101174.81;5112399;28;20500;-68
2021/10/08 11:17:58;;;;;;;12.07;5.25;;;;;;;14.60;58.84;101178.66;5112089;28;20044;-66
2021/10/08 11:20:47;;;;;;;11.68;4.88;;;;;;;14.54;58.24;101174.50;5112162;28;20078;-68
2021/10/08 11:23:27;;;;;;;16.33;5.47;;;;;;;14.70;57.77;101173.56;5112548;28;20039;-68
2021/10/08 11:25:57;;;;;;;14.43;4.80;;;;;;;14.74;56.91;101175.94;5111817;28;20040;-68
2021/10/08 11:28:27;;;;;;;12.93;5.05;;;;;;;14.61;57.69;101172.31;5111909;28;20345;-68
2021/10/08 11:30:56;;;;;;;13.38;5.05;;;;;;;14.60;57.69;101167.91;5111637;28;20043;-68
2021/10/08 11:33:34;;;;;;;11.07;4.65;;;;;;;14.64;58.02;101165.88;5111158;28;20047;-68
2021/10/08 11:36:17;;;;;;;14.35;5.70;;;;;;;14.67;58.05;101166.56;5111773;28;20050;-68
2021/10/08 11:38:45;;;;;;;17.77;5.38;;;;;;;14.62;58.30;101157.94;5111937;28;20112;-68